createdAt,value
2023-01-17T00:02:12.040Z,6.90
2023-01-17T00:04:57.469Z,6.90
2023-01-17T00:07:43.756Z,6.80
2023-01-17T00:10:13.430Z,7.30
2023-01-17T00:12:47.212Z,7.40
2023-01-17T00:15:14.336Z,8.50
2023-01-17T00:17:40.977Z,7.80
2023-01-17T00:20:28.759Z,8.60
2023-01-17T00:23:14.104Z,8.20
2023-01-17T00:26:00.200Z,8.90
2023-01-17T00:28:27.462Z,8.10
2023-01-17T00:30:57.277Z,8.40
2023-01-17T00:33:24.673Z,8.90
2023-01-17T00:35:52.968Z,8.50
2023-01-17T00:38:22.130Z,9.00
2023-01-17T00:40:49.281Z,8.70
2023-01-17T00:43:37.635Z,9.50
2023-01-17T00:46:23.361Z,9.90
2023-01-17T00:49:08.908Z,10.90
2023-01-17T00:51:55.284Z,11.20
2023-01-17T00:54:41.432Z,9.90
2023-01-17T00:57:26.735Z,11.20
2023-01-17T01:00:11.883Z,9.50
2023-01-17T01:02:57.453Z,8.60
2023-01-17T01:05:43.110Z,10.30
2023-01-17T01:08:54.652Z,10.90
2023-01-17T01:11:40.049Z,11.20
2023-01-17T01:14:28.557Z,10.50
2023-01-17T01:17:14.027Z,10.30
2023-01-17T01:19:59.231Z,11.00
2023-01-17T01:22:44.521Z,10.60
2023-01-17T01:25:29.875Z,11.00
2023-01-17T01:28:28.226Z,11.30
2023-01-17T01:31:13.754Z,12.20
2023-01-17T01:33:40.445Z,12.70
2023-01-17T01:36:09.008Z,13.00
2023-01-17T01:38:35.720Z,12.20
2023-01-17T01:41:02.895Z,12.90
2023-01-17T01:43:51.079Z,14.10
2023-01-17T01:46:25.698Z,14.10
2023-01-17T01:48:55.816Z,12.30
2023-01-17T01:51:29.232Z,13.70
2023-01-17T01:54:03.721Z,13.50
2023-01-17T01:56:31.953Z,14.40
2023-01-17T01:59:02.858Z,14.20
2023-01-17T02:01:31.088Z,14.60
2023-01-17T02:03:57.939Z,15.10
2023-01-17T02:06:48.006Z,15.60
2023-01-17T02:09:17.099Z,14.80
2023-01-17T02:11:45.980Z,15.10
2023-01-17T02:14:20.341Z,15.60
2023-01-17T02:17:02.980Z,15.70
2023-01-17T02:19:57.895Z,16.50
2023-01-17T02:23:10.320Z,16.60
2023-01-17T02:25:55.765Z,16.10
2023-01-17T02:28:53.438Z,15.90
2023-01-17T02:31:44.756Z,15.70
2023-01-17T02:34:50.224Z,17.30
2023-01-17T02:37:24.796Z,16.80
2023-01-17T02:40:04.648Z,16.90
2023-01-17T02:42:42.676Z,16.80
2023-01-17T02:45:14.680Z,16.80
2023-01-17T02:47:41.268Z,17.00
2023-01-17T02:50:14.855Z,16.60
2023-01-17T02:52:53.795Z,16.80
2023-01-17T02:55:52.713Z,17.10
2023-01-17T02:58:55.080Z,16.80
2023-01-17T03:01:58.796Z,17.10
2023-01-17T03:04:38.214Z,16.70
2023-01-17T03:07:11.823Z,15.00
2023-01-17T03:09:40.796Z,17.00
2023-01-17T03:12:09.634Z,15.10
2023-01-17T03:14:36.281Z,15.00
2023-01-17T03:17:03.041Z,16.10
2023-01-17T03:19:29.989Z,14.70
2023-01-17T03:21:57.131Z,15.30
2023-01-17T03:24:26.055Z,15.00
2023-01-17T03:26:52.754Z,16.50
2023-01-17T03:29:19.688Z,16.90
2023-01-17T03:31:49.326Z,15.90
2023-01-17T03:34:15.924Z,16.30
2023-01-17T03:36:42.551Z,15.50
2023-01-17T03:39:12.041Z,14.80
2023-01-17T03:41:38.797Z,14.10
2023-01-17T03:44:05.880Z,13.70
2023-01-17T03:46:32.917Z,14.00
2023-01-17T03:48:59.553Z,14.30
2023-01-17T03:51:28.960Z,13.40
2023-01-17T03:53:55.527Z,14.20
2023-01-17T03:56:22.241Z,14.10
2023-01-17T03:58:48.930Z,13.40
2023-01-17T04:01:15.922Z,12.90
2023-01-17T04:03:42.627Z,13.10
2023-01-17T04:06:09.255Z,14.50
2023-01-17T04:08:35.900Z,12.60
2023-01-17T04:11:02.626Z,11.70
2023-01-17T04:13:29.270Z,12.70
2023-01-17T04:15:56.173Z,11.50
2023-01-17T04:18:24.601Z,11.90
2023-01-17T04:20:52.649Z,11.90
2023-01-17T04:23:19.408Z,11.30
2023-01-17T04:25:49.164Z,11.00
2023-01-17T04:28:15.832Z,10.30
2023-01-17T04:30:42.448Z,10.70
2023-01-17T04:33:09.099Z,10.40
2023-01-17T04:35:36.101Z,9.80
2023-01-17T04:38:02.809Z,9.00
2023-01-17T04:40:29.689Z,10.10
2023-01-17T04:42:57.976Z,9.30
2023-01-17T04:45:24.648Z,8.90
2023-01-17T04:47:51.365Z,9.20
2023-01-17T04:50:18.339Z,9.10
2023-01-17T04:52:45.073Z,9.30
2023-01-17T04:55:11.771Z,8.80
2023-01-17T04:57:38.483Z,9.90
2023-01-17T05:00:05.634Z,10.20
2023-01-17T05:02:32.461Z,11.20
2023-01-17T05:04:59.114Z,11.80
2023-01-17T05:07:25.835Z,13.00
2023-01-17T05:09:52.468Z,11.90
2023-01-17T05:12:19.072Z,12.80
2023-01-17T05:14:45.686Z,11.80
2023-01-17T05:17:12.333Z,11.50
2023-01-17T05:19:39.070Z,9.20
2023-01-17T05:22:14.993Z,8.40
2023-01-17T05:24:43.514Z,8.10
2023-01-17T05:27:12.255Z,7.60
2023-01-17T05:29:39.666Z,7.50
2023-01-17T05:32:06.967Z,7.70
2023-01-17T05:34:34.326Z,7.20
2023-01-17T05:37:00.911Z,7.20
2023-01-17T05:39:27.661Z,6.90
2023-01-17T05:41:54.283Z,8.70
2023-01-17T05:44:21.081Z,9.70
2023-01-17T05:46:47.721Z,8.00
2023-01-17T05:49:15.478Z,8.70
2023-01-17T05:51:42.772Z,9.40
2023-01-17T05:54:09.384Z,8.80
2023-01-17T05:56:36.061Z,10.40
2023-01-17T05:59:02.770Z,9.40
2023-01-17T06:01:29.516Z,10.60
2023-01-17T06:03:56.152Z,9.90
2023-01-17T06:06:23.077Z,10.40
2023-01-17T06:08:49.741Z,11.50
2023-01-17T06:11:16.480Z,11.90
2023-01-17T06:13:43.117Z,10.00
2023-01-17T06:16:09.990Z,10.00
2023-01-17T06:18:36.633Z,8.70
2023-01-17T06:21:03.254Z,8.20
2023-01-17T06:23:30.223Z,8.50
2023-01-17T06:25:56.788Z,8.50
2023-01-17T06:28:24.238Z,8.80
2023-01-17T06:30:50.928Z,8.10
2023-01-17T06:33:17.685Z,7.40
2023-01-17T06:35:51.791Z,8.90
2023-01-17T06:38:19.079Z,9.80
2023-01-17T06:40:45.850Z,10.40
2023-01-17T06:43:12.755Z,7.40
2023-01-17T06:45:39.522Z,8.30
2023-01-17T06:48:06.495Z,7.10
2023-01-17T06:50:34.158Z,6.80
2023-01-17T06:53:04.294Z,6.40
2023-01-17T06:55:33.792Z,7.00
2023-01-17T06:58:02.699Z,7.10
2023-01-17T07:00:30.876Z,7.20
2023-01-17T07:02:58.140Z,6.60
2023-01-17T07:05:25.018Z,5.90
2023-01-17T07:07:51.759Z,5.20
2023-01-17T07:10:18.523Z,8.60
2023-01-17T07:12:45.818Z,7.80
2023-01-17T07:15:13.264Z,8.50
2023-01-17T07:17:39.958Z,8.80
2023-01-17T07:20:07.382Z,8.70
2023-01-17T07:22:34.207Z,8.30
2023-01-17T07:25:00.862Z,10.30
2023-01-17T07:27:31.025Z,10.40
2023-01-17T07:29:58.103Z,9.90
2023-01-17T07:32:26.776Z,10.50
2023-01-17T07:34:59.303Z,10.70
2023-01-17T07:37:28.750Z,9.40
2023-01-17T07:39:56.459Z,9.60
2023-01-17T07:42:24.297Z,9.10
2023-01-17T07:44:51.226Z,8.80
2023-01-17T07:47:17.917Z,8.80
2023-01-17T07:49:44.640Z,9.60
2023-01-17T07:52:11.747Z,10.40
2023-01-17T07:54:40.400Z,8.80
2023-01-17T07:57:11.937Z,10.10
2023-01-17T07:59:38.556Z,9.10
2023-01-17T08:02:05.360Z,9.20
2023-01-17T08:04:35.276Z,8.80
2023-01-17T08:07:02.077Z,9.10
2023-01-17T08:09:28.906Z,8.40
2023-01-17T08:11:55.527Z,8.60
2023-01-17T08:14:22.068Z,6.80
2023-01-17T08:16:48.678Z,7.40
2023-01-17T08:19:15.347Z,6.90
2023-01-17T08:21:41.942Z,7.20
2023-01-17T08:24:14.995Z,8.00
2023-01-17T08:26:41.763Z,6.30
2023-01-17T08:29:09.161Z,6.60
2023-01-17T08:31:36.065Z,4.00
2023-01-17T08:34:02.761Z,2.80
2023-01-17T08:36:31.369Z,2.50
2023-01-17T08:38:58.899Z,2.50
2023-01-17T08:41:27.830Z,2.60
2023-01-17T08:43:54.595Z,2.30
2023-01-17T08:46:21.253Z,2.80
2023-01-17T08:48:58.763Z,3.00
2023-01-17T08:51:28.980Z,2.70
2023-01-17T08:53:56.583Z,2.00
2023-01-17T08:56:23.818Z,3.00
2023-01-17T08:58:50.431Z,2.40
2023-01-17T09:01:17.399Z,2.80
2023-01-17T09:03:45.646Z,2.80
2023-01-17T09:06:15.013Z,2.40
2023-01-17T09:08:46.946Z,3.00
2023-01-17T09:11:18.079Z,2.00
2023-01-17T09:13:46.914Z,1.90
2023-01-17T09:16:13.609Z,2.90
2023-01-17T09:18:40.297Z,1.80
2023-01-17T09:21:14.130Z,2.20
2023-01-17T09:23:41.658Z,3.10
2023-01-17T09:26:18.184Z,3.00
2023-01-17T09:28:44.858Z,3.00
2023-01-17T09:31:12.232Z,2.00
2023-01-17T09:33:41.803Z,2.10
2023-01-17T09:36:10.260Z,2.00
2023-01-17T09:38:37.921Z,2.50
2023-01-17T09:41:29.297Z,2.00
2023-01-17T09:44:05.029Z,3.40
2023-01-17T09:46:37.445Z,2.50
2023-01-17T09:49:14.953Z,2.20
2023-01-17T09:51:42.723Z,2.80
2023-01-17T09:54:22.121Z,2.30
2023-01-17T09:57:00.723Z,1.80
2023-01-17T09:59:37.878Z,2.60
2023-01-17T10:02:18.495Z,2.00
2023-01-17T10:04:45.401Z,1.70
2023-01-17T10:07:42.020Z,1.80
2023-01-17T10:10:14.709Z,1.90
2023-01-17T10:13:20.140Z,1.20
2023-01-17T10:16:12.589Z,1.60
2023-01-17T10:18:51.477Z,2.00
2023-01-17T10:21:43.256Z,1.60
2023-01-17T10:24:41.480Z,1.50
2023-01-17T10:27:44.774Z,1.80
2023-01-17T10:30:20.067Z,1.80
2023-01-17T10:32:49.683Z,1.70
2023-01-17T10:35:25.750Z,1.70
2023-01-17T10:37:56.900Z,1.60
2023-01-17T10:40:41.017Z,1.80
2023-01-17T10:43:22.748Z,1.50
2023-01-17T10:45:54.528Z,1.90
2023-01-17T10:48:53.627Z,1.60
2023-01-17T10:51:44.849Z,1.40
2023-01-17T10:54:31.411Z,1.50
2023-01-17T10:56:58.883Z,1.10
2023-01-17T10:59:33.872Z,1.30
2023-01-17T11:02:07.404Z,1.40
2023-01-17T11:04:36.867Z,1.20
2023-01-17T11:07:28.306Z,1.20
2023-01-17T11:09:57.686Z,1.50
2023-01-17T11:12:38.327Z,1.50
2023-01-17T11:15:10.867Z,1.60
2023-01-17T11:17:48.952Z,1.70
2023-01-17T11:20:39.940Z,1.30
2023-01-17T11:23:23.125Z,1.50
2023-01-17T11:25:55.713Z,1.50
2023-01-17T11:28:32.058Z,1.40
2023-01-17T11:31:25.980Z,1.30
2023-01-17T11:34:07.698Z,1.60
2023-01-17T11:36:34.538Z,1.30
2023-01-17T11:39:04.307Z,1.30
2023-01-17T11:41:42.312Z,1.40
2023-01-17T11:44:30.447Z,1.10
2023-01-17T11:47:12.596Z,1.20
2023-01-17T11:49:41.008Z,1.40
2023-01-17T11:52:24.281Z,1.30
2023-01-17T11:54:53.596Z,1.10
2023-01-17T11:57:31.435Z,1.40
2023-01-17T12:00:22.492Z,1.20
2023-01-17T12:03:24.683Z,1.30
2023-01-17T12:05:58.533Z,1.00
2023-01-17T12:08:36.838Z,0.80
2023-01-17T12:13:57.847Z,1.10
2023-01-17T12:16:51.074Z,1.00
2023-01-17T12:19:55.289Z,0.70
2023-01-17T12:22:35.325Z,0.60
2023-01-17T12:25:23.098Z,1.50
2023-01-17T12:28:18.823Z,1.00
2023-01-17T12:31:20.680Z,1.00
2023-01-17T12:33:53.506Z,0.70
2023-01-17T12:36:38.470Z,1.00
2023-01-17T12:39:10.193Z,0.80
2023-01-17T12:41:54.384Z,0.90
2023-01-17T12:47:02.309Z,0.90
2023-01-17T12:49:36.450Z,1.10
2023-01-17T12:52:12.959Z,1.20
2023-01-17T12:54:44.315Z,0.60
2023-01-17T12:57:14.352Z,0.90
2023-01-17T13:00:05.657Z,1.00
2023-01-17T13:02:38.916Z,0.90
2023-01-17T13:17:25.412Z,1.50
2023-01-17T13:20:11.065Z,1.00
2023-01-17T13:22:39.932Z,1.40
2023-01-17T13:25:32.743Z,1.20
2023-01-17T13:28:05.132Z,0.80
2023-01-17T13:31:10.706Z,0.80
2023-01-17T13:33:49.666Z,0.90
2023-01-17T13:37:04.822Z,1.10
2023-01-17T13:39:49.642Z,0.90
2023-01-17T13:42:56.198Z,1.10
2023-01-17T13:45:25.970Z,1.00
2023-01-17T13:47:54.006Z,2.10
2023-01-17T13:50:47.440Z,1.50
2023-01-17T13:53:29.318Z,1.40
2023-01-17T13:56:03.971Z,1.40
2023-01-17T13:58:51.755Z,2.90
2023-01-17T14:01:24.800Z,2.20
2023-01-17T14:03:54.814Z,2.50
2023-01-17T14:06:50.018Z,2.50
2023-01-17T14:09:27.817Z,2.60
2023-01-17T14:12:01.038Z,2.80
2023-01-17T14:14:39.892Z,2.80
2023-01-17T14:17:37.245Z,3.00
2023-01-17T14:20:09.807Z,3.40
2023-01-17T14:22:41.787Z,4.00
2023-01-17T14:25:11.190Z,3.00
2023-01-17T14:28:01.806Z,3.30
2023-01-17T14:30:28.474Z,3.20
2023-01-17T14:33:10.552Z,3.10
2023-01-17T14:35:41.044Z,3.60
2023-01-17T14:38:21.856Z,3.40
2023-01-17T14:40:59.620Z,3.00
2023-01-17T14:43:28.797Z,3.20
2023-01-17T14:46:04.218Z,3.40
2023-01-17T14:48:31.376Z,2.90
2023-01-17T14:51:00.215Z,3.10
2023-01-17T14:53:31.606Z,3.30
2023-01-17T14:56:12.577Z,3.40
2023-01-17T14:58:39.764Z,3.70
2023-01-17T15:01:19.486Z,3.50
2023-01-17T15:03:53.534Z,2.80
2023-01-17T15:06:27.887Z,3.00
2023-01-17T15:08:54.695Z,3.10
2023-01-17T15:11:30.992Z,2.60
2023-01-17T15:14:00.505Z,3.00
2023-01-17T15:16:36.786Z,3.00
2023-01-17T15:19:14.099Z,2.80
2023-01-17T15:21:43.201Z,3.10
2023-01-17T15:24:27.615Z,3.00
2023-01-17T15:26:54.749Z,1.70
2023-01-17T15:29:41.982Z,2.40
2023-01-17T15:32:19.192Z,4.20
2023-01-17T15:34:48.631Z,3.50
2023-01-17T15:37:33.604Z,4.00
2023-01-17T15:40:05.785Z,3.70
2023-01-17T15:42:36.469Z,3.50
2023-01-17T15:45:06.297Z,4.00
2023-01-17T15:47:38.698Z,3.70
2023-01-17T15:50:30.659Z,5.20
2023-01-17T15:53:05.623Z,5.90
2023-01-17T15:55:36.026Z,6.70
2023-01-17T15:58:22.972Z,5.30
2023-01-17T16:00:52.911Z,4.30
2023-01-17T16:03:19.571Z,3.60
2023-01-17T16:05:47.157Z,5.70
2023-01-17T16:08:16.698Z,9.10
2023-01-17T16:10:44.413Z,4.40
2023-01-17T16:13:13.684Z,4.20
2023-01-17T16:15:41.996Z,5.20
2023-01-17T16:18:24.652Z,5.00
2023-01-17T16:21:18.692Z,5.00
2023-01-17T16:23:46.052Z,5.70
2023-01-17T16:26:12.725Z,4.90
2023-01-17T16:28:40.685Z,4.30
2023-01-17T16:31:07.411Z,3.90
2023-01-17T16:33:34.734Z,3.90
2023-01-17T16:36:01.382Z,4.40
2023-01-17T16:38:28.053Z,3.90
2023-01-17T16:40:56.142Z,4.40
2023-01-17T16:43:22.819Z,3.70
2023-01-17T16:45:53.121Z,3.70
2023-01-17T16:48:20.898Z,4.10
2023-01-17T16:50:53.262Z,3.90
2023-01-17T16:53:24.666Z,3.90
2023-01-17T16:55:56.100Z,4.60
2023-01-17T16:58:22.888Z,4.30
2023-01-17T17:00:49.593Z,4.10
2023-01-17T17:03:18.469Z,5.00
2023-01-17T17:05:47.261Z,4.30
2023-01-17T17:08:15.483Z,4.80
2023-01-17T17:10:42.222Z,3.70
2023-01-17T17:13:08.874Z,4.20
2023-01-17T17:15:35.582Z,4.10
2023-01-17T17:18:02.595Z,3.50
2023-01-17T17:20:29.208Z,3.70
2023-01-17T17:22:56.416Z,3.70
2023-01-17T17:25:23.187Z,3.60
2023-01-17T17:27:52.877Z,4.70
2023-01-17T17:30:19.880Z,4.00
2023-01-17T17:32:47.655Z,4.60
2023-01-17T17:35:14.891Z,5.20
2023-01-17T17:37:41.558Z,6.90
2023-01-17T17:40:09.044Z,5.60
2023-01-17T17:42:35.716Z,13.10
2023-01-17T17:45:02.613Z,10.70
2023-01-17T17:47:30.670Z,13.70
2023-01-17T17:49:57.341Z,10.70
2023-01-17T17:52:24.011Z,12.50
2023-01-17T17:54:50.708Z,14.00
2023-01-17T17:57:17.318Z,39.10
2023-01-17T17:59:46.462Z,12.90
2023-01-17T18:02:13.176Z,10.30
2023-01-17T18:04:39.952Z,5.20
2023-01-17T18:07:06.660Z,3.60
2023-01-17T18:09:33.332Z,4.40
2023-01-17T18:12:00.986Z,7.20
2023-01-17T18:14:27.677Z,5.60
2023-01-17T18:16:54.479Z,7.20
2023-01-17T18:19:24.736Z,3.90
2023-01-17T18:21:52.361Z,2.60
2023-01-17T18:24:24.011Z,2.60
2023-01-17T18:26:57.118Z,3.50
2023-01-17T18:29:25.374Z,2.90
2023-01-17T18:31:53.155Z,3.60
2023-01-17T18:34:24.017Z,4.90
2023-01-17T18:36:51.669Z,3.80
2023-01-17T18:39:27.357Z,3.40
2023-01-17T18:41:55.275Z,4.00
2023-01-17T18:44:24.001Z,3.80
2023-01-17T18:46:52.992Z,3.90
2023-01-17T18:49:20.069Z,3.90
2023-01-17T18:51:51.286Z,3.60
2023-01-17T18:54:20.043Z,3.20
2023-01-17T18:56:49.819Z,3.90
2023-01-17T18:59:18.651Z,4.00
2023-01-17T19:01:47.343Z,4.40
2023-01-17T19:04:15.637Z,4.60
2023-01-17T19:06:45.013Z,5.00
2023-01-17T19:09:13.617Z,4.60
2023-01-17T19:11:43.210Z,3.80
2023-01-17T19:14:10.277Z,3.40
2023-01-17T19:16:40.313Z,3.80
2023-01-17T19:19:10.078Z,3.40
2023-01-17T19:21:37.203Z,3.20
2023-01-17T19:24:04.603Z,4.30
2023-01-17T19:26:32.407Z,5.00
2023-01-17T19:29:00.017Z,4.60
2023-01-17T19:31:29.271Z,5.20
2023-01-17T19:34:00.939Z,4.80
2023-01-17T19:36:32.041Z,4.10
2023-01-17T19:39:05.395Z,4.10
2023-01-17T19:41:35.699Z,4.20
2023-01-17T19:44:05.199Z,4.90
2023-01-17T19:46:32.615Z,5.00
2023-01-17T19:48:59.786Z,4.90
2023-01-17T19:51:26.967Z,5.00
2023-01-17T19:53:54.137Z,4.40
2023-01-17T19:56:25.878Z,4.10
2023-01-17T19:58:53.635Z,3.80
2023-01-17T20:01:28.391Z,4.50
2023-01-17T20:03:58.018Z,4.70
2023-01-17T20:06:29.232Z,4.60
2023-01-17T20:08:57.277Z,5.40
2023-01-17T20:11:26.157Z,6.80
2023-01-17T20:13:55.846Z,6.10
2023-01-17T20:16:24.123Z,5.40
2023-01-17T20:18:50.998Z,5.70
2023-01-17T20:21:27.415Z,5.10
2023-01-17T20:23:57.240Z,5.50
2023-01-17T20:26:31.153Z,5.20
2023-01-17T20:28:59.232Z,4.70
2023-01-17T20:31:27.976Z,4.70
2023-01-17T20:33:57.553Z,4.90
2023-01-17T20:36:29.234Z,4.70
2023-01-17T20:38:57.296Z,5.70
2023-01-17T20:41:28.740Z,7.70
2023-01-17T20:43:58.273Z,7.20
2023-01-17T20:46:28.021Z,6.60
2023-01-17T20:48:59.810Z,6.60
2023-01-17T20:51:28.525Z,6.40
2023-01-17T20:54:00.898Z,6.10
2023-01-17T20:56:30.017Z,6.50
2023-01-17T20:58:57.973Z,5.70
2023-01-17T21:01:24.823Z,5.70
2023-01-17T21:03:54.004Z,6.40
2023-01-17T21:06:22.813Z,5.30
2023-01-17T21:08:50.293Z,4.70
2023-01-17T21:11:22.673Z,5.40
2023-01-17T21:13:49.985Z,6.60
2023-01-17T21:16:19.124Z,5.30
2023-01-17T21:18:47.935Z,5.50
2023-01-17T21:21:18.769Z,6.10
2023-01-17T21:23:45.834Z,7.20
2023-01-17T21:26:14.735Z,10.30
2023-01-17T21:28:43.320Z,8.90
2023-01-17T21:31:24.892Z,6.20
2023-01-17T21:34:00.292Z,5.80
2023-01-17T21:36:29.447Z,6.00
2023-01-17T21:38:58.276Z,6.10
2023-01-17T21:41:28.747Z,6.50
2023-01-17T21:44:08.689Z,6.70
2023-01-17T21:46:38.454Z,7.20
2023-01-17T21:49:05.709Z,7.80
2023-01-17T21:51:51.253Z,7.70
2023-01-17T21:54:44.605Z,6.60
2023-01-17T21:57:32.313Z,6.80
2023-01-17T22:00:00.103Z,6.80
2023-01-17T22:02:26.977Z,5.90
2023-01-17T22:04:54.823Z,5.90
2023-01-17T22:07:22.026Z,6.40
2023-01-17T22:09:50.788Z,7.00
2023-01-17T22:12:20.192Z,6.80
2023-01-17T22:14:46.894Z,6.50
2023-01-17T22:17:13.547Z,6.60
2023-01-17T22:19:40.236Z,6.30
2023-01-17T22:22:06.991Z,6.40
2023-01-17T22:24:36.416Z,6.60
2023-01-17T22:27:03.508Z,6.40
2023-01-17T22:29:32.424Z,6.10
2023-01-17T22:31:58.997Z,4.80
2023-01-17T22:34:25.761Z,6.00
2023-01-17T22:36:52.416Z,5.80
2023-01-17T22:39:19.017Z,5.80
2023-01-17T22:41:45.686Z,3.90
2023-01-17T22:44:12.678Z,6.30
2023-01-17T22:46:40.502Z,6.70
2023-01-17T22:49:13.344Z,5.90
2023-01-17T22:51:39.986Z,6.90
2023-01-17T22:54:06.706Z,6.80
2023-01-17T22:56:34.009Z,8.00
2023-01-17T22:59:01.962Z,7.90
2023-01-17T23:01:31.172Z,8.70
2023-01-17T23:04:03.771Z,8.80
2023-01-17T23:06:35.447Z,8.60
2023-01-17T23:09:05.848Z,8.50
2023-01-17T23:11:40.799Z,8.00
2023-01-17T23:14:24.522Z,8.30
2023-01-17T23:17:14.400Z,7.00
2023-01-17T23:19:49.503Z,7.30
2023-01-17T23:22:26.923Z,8.20
2023-01-17T23:24:56.928Z,8.70
2023-01-17T23:28:00.226Z,8.10
2023-01-17T23:30:35.784Z,8.80
2023-01-17T23:33:05.879Z,7.60
2023-01-17T23:35:36.762Z,8.00
2023-01-17T23:38:23.703Z,8.30
2023-01-17T23:41:10.181Z,7.70
2023-01-17T23:43:37.596Z,7.70
2023-01-17T23:46:05.197Z,7.50
2023-01-17T23:48:31.846Z,7.40
2023-01-17T23:51:01.082Z,7.40
2023-01-17T23:53:28.122Z,8.00
2023-01-17T23:55:56.855Z,7.50
2023-01-17T23:58:26.263Z,7.10
